logo
Search for airport 
image banner adimage banner adimage banner ad
image banner ad

MMMTV - Monterrey

Located in Teapa, Mexico

ICAO - , IATA -

Data provided by Airmate  

General information

Coordinates: N17°39'43" W92°59'11"
Elevation is 59 feet MSL.
Magnetic variation is 1° East
View others Airports in Tabasco

Operational data

Special qualification required
Current time UTC:
Current local time:
METAR: MMVA 251543Z 08009KT 5SM SCT016 31/25 A2999 RMK 8/100 HZY
TAF: TAF MMVA 251604Z 2518/2618 07012KT P6SM SCT020 SCT230 BECMG 2523/2524 P6SM -RA BKN030CB TEMPO 2601/2605 4SM TSRA BKN015 OVC030CB FM260600 14004KT 4SM HZ BKN005 BKN070 BECMG 2609/2610 2SM BR HZ BKN004 TEMPO 2611/2615 BKN004 OVC010 FM261600 07004KT 4SM HZ BKN010 OVC020
View NOTAMs / SUP AIP / TFR affecting this airport [VIEW]
Communications frequencies: [VIEW]

Runways:

RWY identifierQFULength (ft)Width (ft)SurfaceLDA (ft)
0334°162219CONC
21214°162219CONC

Airport contact information

Address: Teapa Mexico

Satellite view of MMMTV